Time;durP1;ratioP1;P1;durP2;ratioP2;P2;SDS_P1;SDS_P2;PMS_P1;PMS_P2;Temp;Humidity;BMP_temperature;BMP_pressure;BME280_temperature;BME280_humidity;BME280_pressure;Samples;Min_cycle;Max_cycle;Signal;HPM_P1;HPM_P2
2023/12/07 00:00:39;;;;;;;23.67;13.68;;;;;;;;;;5094271;28;20142;-68
2023/12/07 00:03:08;;;;;;;16.13;9.52;;;;;;;;;;5094320;28;20047;-68
2023/12/07 00:05:34;;;;;;;23.67;11.82;;;;;;;;;;5092738;28;20040;-68
2023/12/07 00:08:00;;;;;;;27.13;14.43;;;;;;;;;;5094440;28;20047;-68
2023/12/07 00:10:26;;;;;;;20.90;11.93;;;;;;;;;;5094131;28;20115;-68
2023/12/07 00:12:52;;;;;;;14.43;10.23;;;;;;;;;;5092626;28;20052;-68
2023/12/07 00:15:18;;;;;;;15.35;9.77;;;;;;;;;;5094175;28;20391;-68
2023/12/07 00:17:44;;;;;;;15.60;9.10;;;;;;;;;;5092671;28;20119;-68
2023/12/07 00:20:11;;;;;;;13.55;9.85;;;;;;;;;;5073258;28;20090;-68
2023/12/07 00:22:37;;;;;;;15.20;10.18;;;;;;;;;;5073772;28;20052;-68
2023/12/07 00:25:03;;;;;;;18.27;12.35;;;;;;;;;;5074681;28;20367;-68
2023/12/07 00:27:29;;;;;;;19.58;12.63;;;;;;;;;;5091885;28;20094;-68
2023/12/07 00:29:55;;;;;;;20.55;11.98;;;;;;;;;;5092213;28;20040;-68
2023/12/07 00:32:21;;;;;;;16.95;11.38;;;;;;;;;;5093867;28;20040;-68
2023/12/07 00:34:48;;;;;;;17.20;10.50;;;;;;;;;;5091799;28;20486;-68
2023/12/07 00:37:15;;;;;;;14.93;10.20;;;;;;;;;;5093716;28;20044;-68
2023/12/07 00:39:41;;;;;;;14.98;10.82;;;;;;;;;;5093482;28;20495;-68
2023/12/07 00:42:07;;;;;;;16.73;10.70;;;;;;;;;;5091717;28;20102;-68
2023/12/07 00:44:33;;;;;;;19.23;11.93;;;;;;;;;;5093829;28;20032;-68
2023/12/07 00:47:00;;;;;;;20.10;10.55;;;;;;;;;;5092022;28;20044;-68
2023/12/07 00:49:26;;;;;;;15.90;11.07;;;;;;;;;;5092970;28;20043;-68
2023/12/07 00:51:52;;;;;;;19.17;11.48;;;;;;;;;;5093501;28;20047;-68
2023/12/07 00:54:18;;;;;;;17.15;11.00;;;;;;;;;;5093291;28;20044;-68
2023/12/07 00:56:44;;;;;;;18.45;10.70;;;;;;;;;;5091350;28;20048;-68
2023/12/07 00:59:10;;;;;;;20.60;12.15;;;;;;;;;;5093175;28;20052;-68
2023/12/07 01:01:38;;;;;;;21.17;13.00;;;;;;;;;;5093574;28;20471;-68
2023/12/07 01:04:05;;;;;;;18.08;11.43;;;;;;;;;;5091128;28;20066;-68
2023/12/07 01:06:31;;;;;;;19.85;11.93;;;;;;;;;;5093029;28;20110;-68
2023/12/07 01:08:58;;;;;;;20.52;13.50;;;;;;;;;;5091613;28;20148;-68
2023/12/07 01:11:24;;;;;;;20.25;13.25;;;;;;;;;;5092761;28;20043;-68
2023/12/07 01:13:50;;;;;;;23.30;13.35;;;;;;;;;;5092674;28;20132;-68
2023/12/07 01:16:16;;;;;;;24.83;14.00;;;;;;;;;;5093178;28;20051;-68
2023/12/07 01:18:42;;;;;;;27.25;13.55;;;;;;;;;;5083081;28;20056;-68
2023/12/07 01:21:08;;;;;;;22.60;14.00;;;;;;;;;;5071371;28;20673;-68
2023/12/07 01:23:34;;;;;;;21.90;12.43;;;;;;;;;;5071395;28;20048;-68
2023/12/07 01:26:02;;;;;;;24.67;13.27;;;;;;;;;;5081303;28;20035;-68
2023/12/07 01:28:28;;;;;;;22.75;13.52;;;;;;;;;;5092633;28;20047;-68
2023/12/07 01:30:54;;;;;;;22.85;13.25;;;;;;;;;;5091274;28;20047;-68
2023/12/07 01:33:21;;;;;;;23.27;13.73;;;;;;;;;;5092204;28;20036;-68
2023/12/07 01:35:47;;;;;;;22.85;13.15;;;;;;;;;;5090790;28;20056;-68
2023/12/07 01:38:13;;;;;;;20.67;12.50;;;;;;;;;;5092113;28;20079;-68
2023/12/07 01:40:39;;;;;;;19.35;12.13;;;;;;;;;;5092276;28;20470;-68
2023/12/07 01:43:05;;;;;;;23.05;12.98;;;;;;;;;;5092437;28;20051;-68
2023/12/07 01:45:32;;;;;;;17.63;12.23;;;;;;;;;;5092311;28;20486;-68
2023/12/07 01:47:59;;;;;;;22.30;13.52;;;;;;;;;;5092171;28;20031;-68
2023/12/07 01:50:26;;;;;;;18.08;12.45;;;;;;;;;;5091003;28;20047;-68
2023/12/07 01:52:58;;;;;;;19.48;12.50;;;;;;;;;;5092431;28;20040;-68
2023/12/07 01:55:26;;;;;;;20.98;13.00;;;;;;;;;;5092057;28;20036;-68
2023/12/07 01:57:52;;;;;;;19.30;12.43;;;;;;;;;;5091815;28;20095;-68
2023/12/07 02:00:18;;;;;;;19.00;12.63;;;;;;;;;;5090858;28;20083;-68
2023/12/07 02:02:45;;;;;;;20.05;11.70;;;;;;;;;;5090051;28;20048;-68
2023/12/07 02:05:13;;;;;;;19.80;12.95;;;;;;;;;;5092077;28;20085;-68
2023/12/07 02:07:39;;;;;;;23.70;12.57;;;;;;;;;;5092091;28;20040;-68
2023/12/07 02:10:06;;;;;;;20.00;12.25;;;;;;;;;;5091893;28;20119;-68
2023/12/07 02:12:32;;;;;;;20.23;11.85;;;;;;;;;;5091975;28;20044;-68
2023/12/07 02:14:58;;;;;;;18.73;11.57;;;;;;;;;;5091957;28;20505;-68
2023/12/07 02:17:30;;;;;;;17.52;11.30;;;;;;;;;;5091540;28;20048;-68
2023/12/07 02:20:10;;;;;;;18.95;12.02;;;;;;;;;;5072429;28;20047;-68
2023/12/07 02:22:49;;;;;;;18.58;11.70;;;;;;;;;;5070020;28;20524;-68
2023/12/07 02:25:15;;;;;;;17.55;11.25;;;;;;;;;;5072993;28;20059;-68
2023/12/07 02:27:42;;;;;;;17.83;11.73;;;;;;;;;;5090237;28;20040;-68
2023/12/07 02:30:09;;;;;;;20.50;11.95;;;;;;;;;;5091648;28;20040;-68
2023/12/07 02:32:39;;;;;;;19.83;11.40;;;;;;;;;;5091277;28;20122;-68
2023/12/07 02:35:06;;;;;;;18.48;12.07;;;;;;;;;;5089954;28;20051;-68
2023/12/07 02:37:37;;;;;;;19.23;11.55;;;;;;;;;;5091192;28;20036;-68
2023/12/07 02:40:04;;;;;;;18.17;10.75;;;;;;;;;;5089695;28;20043;-68
2023/12/07 02:42:32;;;;;;;18.08;10.57;;;;;;;;;;5091230;28;20506;-68
2023/12/07 02:44:58;;;;;;;20.30;11.75;;;;;;;;;;5090222;28;20415;-68
2023/12/07 02:47:24;;;;;;;18.95;12.00;;;;;;;;;;5091200;28;20472;-68
2023/12/07 02:49:50;;;;;;;22.20;12.50;;;;;;;;;;5091145;28;20042;-68
2023/12/07 02:52:16;;;;;;;20.20;11.73;;;;;;;;;;5090296;28;20047;-68
2023/12/07 02:54:42;;;;;;;22.85;12.32;;;;;;;;;;5091066;28;20040;-68
2023/12/07 02:57:08;;;;;;;21.33;12.45;;;;;;;;;;5091127;28;20113;-68
2023/12/07 02:59:34;;;;;;;24.75;12.38;;;;;;;;;;5091040;28;20052;-68
2023/12/07 03:02:00;;;;;;;21.10;11.85;;;;;;;;;;5089401;28;20451;-68
2023/12/07 03:04:26;;;;;;;21.33;12.10;;;;;;;;;;5089836;28;20055;-68
2023/12/07 03:06:52;;;;;;;20.00;12.45;;;;;;;;;;5089704;28;20435;-68
2023/12/07 03:09:19;;;;;;;21.20;12.35;;;;;;;;;;5090326;28;20130;-68
2023/12/07 03:11:45;;;;;;;21.63;11.90;;;;;;;;;;5090970;28;20502;-68
2023/12/07 03:14:11;;;;;;;22.33;12.90;;;;;;;;;;5091008;28;20043;-68
2023/12/07 03:16:37;;;;;;;22.77;12.30;;;;;;;;;;5090676;28;20119;-68
2023/12/07 03:19:03;;;;;;;24.45;13.10;;;;;;;;;;5077647;28;20090;-68
2023/12/07 03:21:29;;;;;;;22.42;13.30;;;;;;;;;;5070650;28;20040;-68
2023/12/07 03:23:55;;;;;;;24.85;14.13;;;;;;;;;;5068981;28;20132;-68
2023/12/07 03:26:21;;;;;;;24.52;13.32;;;;;;;;;;5081746;28;20119;-68
2023/12/07 03:28:47;;;;;;;23.42;13.48;;;;;;;;;;5090795;28;20397;-68
2023/12/07 03:31:13;;;;;;;25.35;13.70;;;;;;;;;;5090381;28;20036;-68
2023/12/07 03:33:41;;;;;;;25.55;13.63;;;;;;;;;;5091281;28;20043;-68
2023/12/07 03:36:07;;;;;;;23.17;13.13;;;;;;;;;;5089409;28;20157;-68
2023/12/07 03:38:33;;;;;;;22.70;12.82;;;;;;;;;;5090610;28;20394;-68
2023/12/07 03:40:59;;;;;;;28.85;14.90;;;;;;;;;;5089229;28;20036;-68
2023/12/07 03:43:25;;;;;;;27.35;14.02;;;;;;;;;;5089458;28;20057;-68
2023/12/07 03:45:52;;;;;;;23.15;13.57;;;;;;;;;;5090287;28;20671;-68
2023/12/07 03:48:18;;;;;;;28.58;14.30;;;;;;;;;;5090954;28;20044;-68
2023/12/07 03:50:44;;;;;;;27.98;13.98;;;;;;;;;;5089534;28;20044;-68
2023/12/07 03:53:10;;;;;;;25.33;13.55;;;;;;;;;;5088833;28;20055;-68
2023/12/07 03:55:36;;;;;;;25.88;13.75;;;;;;;;;;5089230;28;20040;-68
2023/12/07 03:58:02;;;;;;;24.63;13.52;;;;;;;;;;5089259;28;20055;-68
2023/12/07 04:00:28;;;;;;;26.70;14.23;;;;;;;;;;5092683;28;20557;-68
2023/12/07 04:02:54;;;;;;;27.75;14.93;;;;;;;;;;5092947;28;20458;-68
2023/12/07 04:05:21;;;;;;;25.10;14.32;;;;;;;;;;5092746;28;20044;-68
2023/12/07 04:07:46;;;;;;;28.02;15.70;;;;;;;;;;5093885;28;20040;-68
2023/12/07 04:10:13;;;;;;;25.85;14.68;;;;;;;;;;5093103;28;20488;-68
2023/12/07 04:12:39;;;;;;;27.25;14.57;;;;;;;;;;5092731;28;20113;-68
2023/12/07 04:15:05;;;;;;;26.90;14.35;;;;;;;;;;5092346;28;20455;-68
2023/12/07 04:17:31;;;;;;;26.88;14.15;;;;;;;;;;5092537;28;20036;-68
2023/12/07 04:19:57;;;;;;;28.88;15.23;;;;;;;;;;5074524;28;20032;-68
2023/12/07 04:22:23;;;;;;;24.45;14.40;;;;;;;;;;5073468;28;20064;-68
2023/12/07 04:24:49;;;;;;;27.70;14.48;;;;;;;;;;5073794;28;20140;-68
2023/12/07 04:27:15;;;;;;;28.55;15.25;;;;;;;;;;5092288;28;20044;-68
2023/12/07 04:29:42;;;;;;;26.48;15.02;;;;;;;;;;5093620;28;20042;-68
2023/12/07 04:32:08;;;;;;;29.27;15.82;;;;;;;;;;5093527;28;20050;-68
2023/12/07 04:34:34;;;;;;;28.88;16.40;;;;;;;;;;5093930;28;20040;-68
2023/12/07 04:37:00;;;;;;;28.80;15.27;;;;;;;;;;5092089;28;20083;-68
2023/12/07 04:39:27;;;;;;;27.15;15.55;;;;;;;;;;5093658;28;20040;-68
2023/12/07 04:41:53;;;;;;;27.85;15.77;;;;;;;;;;5093371;28;20093;-68
2023/12/07 04:44:19;;;;;;;24.48;14.10;;;;;;;;;;5092968;28;20123;-68
2023/12/07 04:46:45;;;;;;;30.08;16.13;;;;;;;;;;5091837;28;20382;-68
2023/12/07 04:49:11;;;;;;;26.30;13.90;;;;;;;;;;5092070;28;20485;-68
2023/12/07 04:51:37;;;;;;;27.10;15.30;;;;;;;;;;5091865;28;20066;-68
2023/12/07 04:54:03;;;;;;;30.25;16.15;;;;;;;;;;5092756;28;20040;-68
2023/12/07 04:56:29;;;;;;;24.85;14.05;;;;;;;;;;5093181;28;20135;-68
2023/12/07 04:58:55;;;;;;;30.85;16.45;;;;;;;;;;5093262;28;20124;-68
2023/12/07 05:01:21;;;;;;;26.83;14.85;;;;;;;;;;5091461;28;20122;-68
2023/12/07 05:03:48;;;;;;;30.83;15.95;;;;;;;;;;5091558;28;20100;-68
2023/12/07 05:06:14;;;;;;;26.80;15.73;;;;;;;;;;5091365;28;20036;-68
2023/12/07 05:08:40;;;;;;;25.33;14.93;;;;;;;;;;5090922;28;20044;-68
2023/12/07 05:11:06;;;;;;;27.58;14.77;;;;;;;;;;5090370;28;20055;-68
2023/12/07 05:13:33;;;;;;;29.33;15.43;;;;;;;;;;5091357;28;20055;-68
2023/12/07 05:15:59;;;;;;;25.23;14.90;;;;;;;;;;5091268;28;20048;-68
2023/12/07 05:18:26;;;;;;;25.05;14.32;;;;;;;;;;5084281;28;20127;-68
2023/12/07 05:20:52;;;;;;;27.27;15.45;;;;;;;;;;5072496;28;20040;-68
2023/12/07 05:23:18;;;;;;;27.70;15.70;;;;;;;;;;5070300;28;20056;-68
2023/12/07 05:25:44;;;;;;;27.83;15.85;;;;;;;;;;5079432;28;20118;-68
2023/12/07 05:28:10;;;;;;;27.98;14.85;;;;;;;;;;5090866;28;20071;-68
2023/12/07 05:30:36;;;;;;;24.13;14.80;;;;;;;;;;5091955;28;20118;-68
2023/12/07 05:33:03;;;;;;;25.67;14.95;;;;;;;;;;5091020;28;20044;-68
2023/12/07 05:35:29;;;;;;;25.45;14.93;;;;;;;;;;5091321;28;20123;-68
2023/12/07 05:37:55;;;;;;;27.67;15.25;;;;;;;;;;5090632;28;20842;-68
2023/12/07 05:40:23;;;;;;;26.52;15.15;;;;;;;;;;5090023;28;20040;-68
2023/12/07 05:42:50;;;;;;;25.77;15.02;;;;;;;;;;5090156;28;20515;-68
2023/12/07 05:45:16;;;;;;;26.38;14.13;;;;;;;;;;5091813;28;20055;-68
2023/12/07 05:47:42;;;;;;;30.20;15.85;;;;;;;;;;5090658;28;20032;-68
2023/12/07 05:50:09;;;;;;;26.55;15.30;;;;;;;;;;5090765;28;20075;-68
2023/12/07 05:52:35;;;;;;;26.05;15.45;;;;;;;;;;5090751;28;20055;-68
2023/12/07 05:55:02;;;;;;;28.65;15.63;;;;;;;;;;5092204;28;20047;-68
2023/12/07 05:57:28;;;;;;;28.33;15.70;;;;;;;;;;5091413;28;20109;-68
2023/12/07 05:59:54;;;;;;;34.40;17.33;;;;;;;;;;5091528;28;20036;-68
2023/12/07 06:02:20;;;;;;;28.42;16.65;;;;;;;;;;5091790;28;20097;-68
2023/12/07 06:04:46;;;;;;;33.55;17.05;;;;;;;;;;5090519;28;20044;-68
2023/12/07 06:07:12;;;;;;;28.58;16.55;;;;;;;;;;5090357;28;20048;-68
2023/12/07 06:09:38;;;;;;;28.02;16.25;;;;;;;;;;5090255;28;20135;-68
2023/12/07 06:12:04;;;;;;;32.65;16.67;;;;;;;;;;5091801;28;20413;-68
2023/12/07 06:14:32;;;;;;;30.77;17.05;;;;;;;;;;5089933;28;20231;-68
2023/12/07 06:16:59;;;;;;;31.13;17.80;;;;;;;;;;5091795;28;20487;-68
2023/12/07 06:19:25;;;;;;;36.70;18.27;;;;;;;;;;5076540;28;20075;-68
2023/12/07 06:21:51;;;;;;;28.48;16.48;;;;;;;;;;5070758;28;20041;-68
2023/12/07 06:24:17;;;;;;;33.95;18.23;;;;;;;;;;5070231;28;20072;-68
2023/12/07 06:26:43;;;;;;;36.50;18.50;;;;;;;;;;5086822;28;20043;-68
2023/12/07 06:29:09;;;;;;;32.28;18.25;;;;;;;;;;5089849;28;20067;-68
2023/12/07 06:31:35;;;;;;;31.55;18.27;;;;;;;;;;5091731;28;20082;-68
2023/12/07 06:34:02;;;;;;;31.75;16.38;;;;;;;;;;5090234;28;20149;-68
2023/12/07 06:36:28;;;;;;;28.65;16.73;;;;;;;;;;5089893;28;20478;-68
2023/12/07 06:38:54;;;;;;;33.67;17.73;;;;;;;;;;5091417;28;20040;-67
2023/12/07 06:41:21;;;;;;;34.30;18.63;;;;;;;;;;5090880;28;20036;-67
2023/12/07 06:43:47;;;;;;;29.05;17.05;;;;;;;;;;5090039;28;20470;-67
2023/12/07 06:46:13;;;;;;;33.45;17.90;;;;;;;;;;5094236;28;20101;-66
2023/12/07 06:48:40;;;;;;;33.05;18.85;;;;;;;;;;5093085;28;20040;-66
2023/12/07 06:51:06;;;;;;;33.03;18.17;;;;;;;;;;5093046;28;20472;-67
2023/12/07 06:53:32;;;;;;;34.83;18.42;;;;;;;;;;5092996;28;20063;-67
2023/12/07 06:55:58;;;;;;;31.05;17.45;;;;;;;;;;5093664;28;20131;-67
2023/12/07 06:58:25;;;;;;;35.03;17.70;;;;;;;;;;5091184;28;20544;-67
2023/12/07 07:00:51;;;;;;;33.30;17.17;;;;;;;;;;5093329;28;20089;-67
2023/12/07 07:03:17;;;;;;;33.78;18.60;;;;;;;;;;5091699;28;20660;-66
2023/12/07 07:05:43;;;;;;;30.80;17.23;;;;;;;;;;5091650;28;20486;-66
2023/12/07 07:08:09;;;;;;;33.92;18.23;;;;;;;;;;5089539;28;20036;-67
2023/12/07 07:10:36;;;;;;;28.73;16.48;;;;;;;;;;5083836;28;20079;-67
2023/12/07 07:13:04;;;;;;;35.88;17.60;;;;;;;;;;5075941;28;20041;-67
2023/12/07 07:15:30;;;;;;;31.85;17.42;;;;;;;;;;5071615;28;20071;-67
2023/12/07 07:17:56;;;;;;;32.38;17.45;;;;;;;;;;5092217;28;20036;-67
2023/12/07 07:20:22;;;;;;;31.58;16.73;;;;;;;;;;5092073;28;20535;-68
2023/12/07 07:22:48;;;;;;;28.70;17.08;;;;;;;;;;5091999;28;20040;-68
2023/12/07 07:25:16;;;;;;;27.83;16.30;;;;;;;;;;5090546;28;20036;-68
2023/12/07 07:27:42;;;;;;;32.10;17.83;;;;;;;;;;5083036;28;20410;-66
2023/12/07 07:30:08;;;;;;;30.90;17.45;;;;;;;;;;5076704;28;20055;-67
2023/12/07 07:32:35;;;;;;;30.33;18.05;;;;;;;;;;5081828;28;20756;-68
2023/12/07 07:35:01;;;;;;;31.65;17.73;;;;;;;;;;5081086;28;20060;-68
2023/12/07 07:37:27;;;;;;;33.58;18.27;;;;;;;;;;5086893;28;20055;-68
2023/12/07 07:39:53;;;;;;;34.85;18.25;;;;;;;;;;5092805;28;20044;-68
2023/12/07 07:42:19;;;;;;;34.00;18.05;;;;;;;;;;5089332;28;20651;-68
2023/12/07 07:44:45;;;;;;;28.63;16.70;;;;;;;;;;5088462;28;20593;-68
2023/12/07 07:47:11;;;;;;;32.20;18.55;;;;;;;;;;5079545;28;20094;-67
2023/12/07 07:49:37;;;;;;;31.60;17.52;;;;;;;;;;5084106;28;20441;-68
2023/12/07 07:52:05;;;;;;;31.67;17.52;;;;;;;;;;5088649;28;20054;-67
2023/12/07 07:54:31;;;;;;;30.83;17.10;;;;;;;;;;5079717;28;20048;-67
2023/12/07 07:56:57;;;;;;;32.55;18.23;;;;;;;;;;5083477;28;20071;-67
2023/12/07 07:59:23;;;;;;;30.40;17.08;;;;;;;;;;5090808;28;20048;-68
2023/12/07 08:01:49;;;;;;;32.40;18.60;;;;;;;;;;5091314;28;20595;-69
2023/12/07 08:04:16;;;;;;;33.38;18.05;;;;;;;;;;5091301;28;20036;-68
2023/12/07 08:06:42;;;;;;;33.88;19.20;;;;;;;;;;5090694;28;20521;-68
2023/12/07 08:09:11;;;;;;;30.88;17.40;;;;;;;;;;5092764;28;20127;-68
2023/12/07 08:11:37;;;;;;;31.15;18.05;;;;;;;;;;5091862;28;20044;-69
2023/12/07 08:14:03;;;;;;;31.65;18.98;;;;;;;;;;5084019;28;20032;-69
2023/12/07 08:16:29;;;;;;;32.05;18.00;;;;;;;;;;5092800;28;20193;-71
2023/12/07 08:18:55;;;;;;;30.02;17.58;;;;;;;;;;5088721;28;20539;-69
2023/12/07 08:21:21;;;;;;;34.42;18.15;;;;;;;;;;5090698;28;20047;-69
2023/12/07 08:23:47;;;;;;;34.03;17.38;;;;;;;;;;5074540;28;20052;-69
2023/12/07 08:26:14;;;;;;;30.65;17.88;;;;;;;;;;5090020;28;20059;-70
2023/12/07 08:28:40;;;;;;;29.73;16.85;;;;;;;;;;5089229;28;20040;-71
2023/12/07 08:31:07;;;;;;;29.33;17.42;;;;;;;;;;5087266;28;20048;-71
2023/12/07 08:33:34;;;;;;;29.88;17.70;;;;;;;;;;5087724;28;20482;-70
2023/12/07 08:36:00;;;;;;;31.60;17.52;;;;;;;;;;5091151;28;20408;-70
2023/12/07 08:38:27;;;;;;;34.28;18.90;;;;;;;;;;5092259;28;20371;-69
2023/12/07 08:40:53;;;;;;;36.65;19.38;;;;;;;;;;5090657;28;20055;-70
2023/12/07 08:43:22;;;;;;;32.97;19.23;;;;;;;;;;5091002;28;20050;-69
2023/12/07 08:45:48;;;;;;;36.67;19.33;;;;;;;;;;5087283;28;20514;-70
2023/12/07 08:48:14;;;;;;;39.03;20.92;;;;;;;;;;5079233;28;20040;-70
2023/12/07 08:50:41;;;;;;;41.80;20.92;;;;;;;;;;5083868;28;20036;-69
2023/12/07 08:53:07;;;;;;;43.50;22.05;;;;;;;;;;5090053;28;20082;-70
2023/12/07 08:55:33;;;;;;;39.05;21.67;;;;;;;;;;5094610;28;20054;-69
2023/12/07 08:58:00;;;;;;;45.08;23.52;;;;;;;;;;5086437;28;20060;-69
2023/12/07 09:00:26;;;;;;;46.95;23.42;;;;;;;;;;5084231;28;20083;-70
2023/12/07 09:02:52;;;;;;;42.53;23.75;;;;;;;;;;5086712;28;20086;-69
2023/12/07 09:05:19;;;;;;;45.78;22.90;;;;;;;;;;5088827;28;20044;-69
2023/12/07 09:07:45;;;;;;;41.10;23.58;;;;;;;;;;5077286;28;20040;-69
2023/12/07 09:10:11;;;;;;;41.60;22.88;;;;;;;;;;5083144;28;20029;-70
2023/12/07 09:12:37;;;;;;;43.05;23.17;;;;;;;;;;5082187;28;20036;-69
2023/12/07 09:15:04;;;;;;;42.20;22.77;;;;;;;;;;5086743;28;20040;-70
2023/12/07 09:17:30;;;;;;;40.75;23.60;;;;;;;;;;5090095;28;20044;-70
2023/12/07 09:19:56;;;;;;;38.97;22.70;;;;;;;;;;5074537;28;20505;-70
2023/12/07 09:22:22;;;;;;;42.03;23.77;;;;;;;;;;5081036;28;20090;-70
2023/12/07 09:24:48;;;;;;;43.65;23.40;;;;;;;;;;5089259;28;20040;-68
2023/12/07 09:27:14;;;;;;;44.05;22.98;;;;;;;;;;5090840;28;20082;-69
2023/12/07 09:29:40;;;;;;;38.53;22.63;;;;;;;;;;5090322;28;20093;-69
2023/12/07 09:32:07;;;;;;;43.00;24.13;;;;;;;;;;5086558;28;20044;-69
2023/12/07 09:34:34;;;;;;;40.90;22.70;;;;;;;;;;5083780;28;20047;-68
2023/12/07 09:37:07;;;;;;;43.47;24.63;;;;;;;;;;5086291;28;20044;-69
2023/12/07 09:39:36;;;;;;;46.78;24.75;;;;;;;;;;5068863;28;20445;-69
2023/12/07 09:42:03;;;;;;;44.88;23.88;;;;;;;;;;5089156;28;20040;-69
2023/12/07 09:44:29;;;;;;;45.70;23.45;;;;;;;;;;5089945;28;20085;-69
2023/12/07 09:46:55;;;;;;;42.38;22.10;;;;;;;;;;5086377;28;20051;-69
2023/12/07 09:49:22;;;;;;;47.15;21.45;;;;;;;;;;5086481;28;20050;-70
2023/12/07 09:51:48;;;;;;;35.00;20.83;;;;;;;;;;5075040;28;20387;-70
2023/12/07 09:54:15;;;;;;;35.55;20.35;;;;;;;;;;5089291;28;20054;-70
2023/12/07 09:56:41;;;;;;;40.47;20.38;;;;;;;;;;5088805;28;20079;-69
2023/12/07 09:59:07;;;;;;;38.15;20.50;;;;;;;;;;5085720;28;20051;-69
2023/12/07 10:01:35;;;;;;;43.50;20.25;;;;;;;;;;5089866;28;20047;-69
2023/12/07 10:04:16;;;;;;;34.75;19.27;;;;;;;;;;5077783;28;20176;-69
2023/12/07 10:06:47;;;;;;;42.45;18.67;;;;;;;;;;5089966;28;20048;-69
2023/12/07 10:09:14;;;;;;;31.27;18.02;;;;;;;;;;5090740;28;20040;-67
2023/12/07 10:11:40;;;;;;;36.58;17.60;;;;;;;;;;5084324;28;20063;-67
2023/12/07 10:14:10;;;;;;;32.00;17.83;;;;;;;;;;5082641;28;20048;-67
2023/12/07 10:16:36;;;;;;;33.15;18.23;;;;;;;;;;5076221;28;20036;-68
2023/12/07 10:19:19;;;;;;;54.20;19.73;;;;;;;;;;5071225;28;20046;-67
2023/12/07 10:21:45;;;;;;;35.22;17.30;;;;;;;;;;5072827;28;20048;-68
2023/12/07 10:24:12;;;;;;;30.85;17.10;;;;;;;;;;5090178;28;20036;-67
2023/12/07 10:26:38;;;;;;;34.33;16.38;;;;;;;;;;5077246;28;20131;-68
2023/12/07 10:29:08;;;;;;;31.17;15.93;;;;;;;;;;5080961;28;20107;-69
2023/12/07 10:31:34;;;;;;;26.20;16.42;;;;;;;;;;5058721;28;20032;-68
2023/12/07 10:34:00;;;;;;;39.00;17.05;;;;;;;;;;5079590;28;20708;-69
2023/12/07 10:36:26;;;;;;;30.52;15.63;;;;;;;;;;5076469;28;20047;-68
2023/12/07 10:38:53;;;;;;;32.60;15.20;;;;;;;;;;5073349;28;20116;-69
2023/12/07 10:41:20;;;;;;;27.08;14.88;;;;;;;;;;5079441;28;20041;-70
2023/12/07 10:43:49;;;;;;;38.72;16.33;;;;;;;;;;5081896;28;20046;-68
2023/12/07 10:46:16;;;;;;;27.80;14.70;;;;;;;;;;5084501;28;20035;-69
2023/12/07 10:48:44;;;;;;;42.53;16.77;;;;;;;;;;5078549;28;20532;-69
2023/12/07 10:51:13;;;;;;;29.77;15.65;;;;;;;;;;5085912;28;20032;-68
2023/12/07 10:53:43;;;;;;;31.00;15.25;;;;;;;;;;5089526;28;20048;-70
2023/12/07 10:56:17;;;;;;;24.65;15.90;;;;;;;;;;5087290;28;20066;-70
2023/12/07 10:58:44;;;;;;;28.75;15.80;;;;;;;;;;5078660;28;20056;-70
2023/12/07 11:01:11;;;;;;;35.33;16.70;;;;;;;;;;5071300;28;20036;-70
2023/12/07 11:03:40;;;;;;;28.00;16.80;;;;;;;;;;5089089;28;20538;-71
2023/12/07 11:06:08;;;;;;;25.52;16.80;;;;;;;;;;5083834;28;20044;-70
2023/12/07 11:08:40;;;;;;;28.75;16.85;;;;;;;;;;5089871;28;20121;-69
2023/12/07 11:11:09;;;;;;;45.55;17.58;;;;;;;;;;5085308;28;20176;-70
2023/12/07 11:13:39;;;;;;;30.95;17.30;;;;;;;;;;5085507;28;20040;-69
2023/12/07 11:16:05;;;;;;;31.30;17.45;;;;;;;;;;5090984;28;20055;-69
2023/12/07 11:18:31;;;;;;;87.30;18.15;;;;;;;;;;5087684;28;20041;-69
2023/12/07 11:20:58;;;;;;;31.33;16.83;;;;;;;;;;5079239;28;20115;-69
2023/12/07 11:23:24;;;;;;;30.60;18.42;;;;;;;;;;5093323;28;20486;-68
2023/12/07 11:25:52;;;;;;;64.18;18.85;;;;;;;;;;5092992;28;20051;-68
2023/12/07 11:28:18;;;;;;;31.60;17.70;;;;;;;;;;5092444;28;20402;-68
2023/12/07 11:30:47;;;;;;;28.88;17.50;;;;;;;;;;5091346;28;20031;-69
2023/12/07 11:33:15;;;;;;;28.25;17.27;;;;;;;;;;5087731;28;20070;-69
2023/12/07 11:36:00;;;;;;;41.55;18.98;;;;;;;;;;5092777;28;20106;-69
2023/12/07 11:38:26;;;;;;;39.80;17.63;;;;;;;;;;5093346;28;20040;-69
2023/12/07 11:40:52;;;;;;;43.65;17.67;;;;;;;;;;5087742;28;20032;-69
2023/12/07 11:43:19;;;;;;;32.97;18.08;;;;;;;;;;5086288;28;20127;-69
2023/12/07 11:45:49;;;;;;;30.92;17.77;;;;;;;;;;5092987;28;20100;-69
2023/12/07 11:48:18;;;;;;;30.50;17.42;;;;;;;;;;5067154;28;20390;-69
2023/12/07 11:51:00;;;;;;;30.27;17.38;;;;;;;;;;5092941;28;20082;-69
2023/12/07 11:53:26;;;;;;;;;;;;;;;;;;5093909;28;20471;-69
2023/12/07 11:55:53;;;;;;;27.35;17.35;;;;;;;;;;5093900;28;19947;-68
2023/12/07 11:58:19;;;;;;;29.13;18.08;;;;;;;;;;5083446;28;20057;-68
2023/12/07 12:00:46;;;;;;;33.03;18.52;;;;;;;;;;5076860;28;20170;-69
2023/12/07 12:03:13;;;;;;;25.77;17.25;;;;;;;;;;5090666;28;20626;-68
2023/12/07 12:05:40;;;;;;;31.45;17.15;;;;;;;;;;5093257;28;20048;-68
2023/12/07 12:08:06;;;;;;;34.85;18.20;;;;;;;;;;5083684;28;20041;-67
2023/12/07 12:10:33;;;;;;;27.80;17.23;;;;;;;;;;5090585;28;20056;-68
2023/12/07 12:13:02;;;;;;;30.60;18.98;;;;;;;;;;5093487;28;20487;-68
2023/12/07 12:15:29;;;;;;;28.40;17.30;;;;;;;;;;5093312;28;20154;-68
2023/12/07 12:17:57;;;;;;;33.42;18.58;;;;;;;;;;5091892;28;20040;-69
2023/12/07 12:20:24;;;;;;;36.17;19.67;;;;;;;;;;5089628;28;20496;-68
2023/12/07 12:22:53;;;;;;;33.40;18.88;;;;;;;;;;5077690;28;20043;-68
2023/12/07 12:25:25;;;;;;;30.40;18.58;;;;;;;;;;5079992;28;20076;-68
2023/12/07 12:27:52;;;;;;;40.58;19.98;;;;;;;;;;5081490;28;20032;-68
2023/12/07 12:30:19;;;;;;;33.58;19.50;;;;;;;;;;5087625;28;20083;-68
2023/12/07 12:32:48;;;;;;;40.60;19.77;;;;;;;;;;5091364;28;20047;-68
2023/12/07 12:35:17;;;;;;;33.92;19.70;;;;;;;;;;5092612;28;20505;-68
2023/12/07 12:37:43;;;;;;;37.58;20.00;;;;;;;;;;5087735;28;20471;-69
2023/12/07 12:40:11;;;;;;;32.10;19.45;;;;;;;;;;5085724;28;20044;-69
2023/12/07 12:42:37;;;;;;;40.28;19.10;;;;;;;;;;5090829;28;20177;-69
2023/12/07 12:45:08;;;;;;;50.58;20.90;;;;;;;;;;5091589;28;20074;-70
2023/12/07 12:47:35;;;;;;;42.22;20.42;;;;;;;;;;5085712;28;20037;-69
2023/12/07 12:50:04;;;;;;;41.83;20.10;;;;;;;;;;5073843;28;20043;-68
2023/12/07 12:52:30;;;;;;;36.45;19.23;;;;;;;;;;5084466;28;20051;-69
2023/12/07 12:54:56;;;;;;;38.45;19.80;;;;;;;;;;5076936;28;20086;-67
2023/12/07 12:57:23;;;;;;;36.15;18.95;;;;;;;;;;5088132;28;20059;-67
2023/12/07 12:59:49;;;;;;;38.80;21.52;;;;;;;;;;5090886;28;20059;-67
2023/12/07 13:02:15;;;;;;;38.83;21.50;;;;;;;;;;5091968;28;20048;-68
2023/12/07 13:04:41;;;;;;;42.53;21.30;;;;;;;;;;5091660;28;20390;-67
2023/12/07 13:07:07;;;;;;;42.53;20.55;;;;;;;;;;5075784;28;20040;-69
2023/12/07 13:09:33;;;;;;;38.72;20.63;;;;;;;;;;5089970;28;20122;-69
2023/12/07 13:12:00;;;;;;;38.67;20.27;;;;;;;;;;5077887;28;20485;-69
2023/12/07 13:14:27;;;;;;;39.25;20.55;;;;;;;;;;5086817;28;20036;-69
2023/12/07 13:16:53;;;;;;;39.03;20.35;;;;;;;;;;5090298;28;20039;-68
2023/12/07 13:19:19;;;;;;;40.20;20.98;;;;;;;;;;5089179;28;20056;-69
2023/12/07 13:21:46;;;;;;;44.22;21.20;;;;;;;;;;5082579;28;20121;-69
2023/12/07 13:24:12;;;;;;;37.45;21.10;;;;;;;;;;5090648;28;20087;-67
2023/12/07 13:26:39;;;;;;;39.25;20.60;;;;;;;;;;5091406;28;20043;-67
2023/12/07 13:29:07;;;;;;;44.45;21.58;;;;;;;;;;5091149;28;20043;-67
2023/12/07 13:31:34;;;;;;;45.08;22.60;;;;;;;;;;5087176;28;20040;-68
2023/12/07 13:34:01;;;;;;;43.42;21.40;;;;;;;;;;5090461;28;20036;-67
2023/12/07 13:36:29;;;;;;;47.58;22.55;;;;;;;;;;5091254;28;20048;-67
2023/12/07 13:38:55;;;;;;;46.40;22.77;;;;;;;;;;5091420;28;20383;-68
2023/12/07 13:41:22;;;;;;;49.67;21.85;;;;;;;;;;5090075;28;20078;-69
2023/12/07 13:43:48;;;;;;;47.90;23.35;;;;;;;;;;5090037;28;20040;-68
2023/12/07 13:46:16;;;;;;;42.50;21.88;;;;;;;;;;5089367;28;20119;-67
2023/12/07 13:48:42;;;;;;;48.78;22.25;;;;;;;;;;5073171;28;20036;-67
2023/12/07 13:51:08;;;;;;;53.15;22.33;;;;;;;;;;5085883;28;20399;-68
2023/12/07 13:53:34;;;;;;;48.60;21.10;;;;;;;;;;5083443;28;20543;-67
2023/12/07 13:56:04;;;;;;;51.17;23.70;;;;;;;;;;5090562;28;20044;-68
2023/12/07 13:58:30;;;;;;;53.47;22.17;;;;;;;;;;5088931;28;20064;-67
2023/12/07 14:00:56;;;;;;;55.13;24.10;;;;;;;;;;5083167;28;20091;-68
2023/12/07 14:03:22;;;;;;;54.75;23.95;;;;;;;;;;5083667;28;20033;-68
2023/12/07 14:05:49;;;;;;;58.45;25.17;;;;;;;;;;5087426;28;20040;-70
2023/12/07 14:08:15;;;;;;;54.90;22.77;;;;;;;;;;5086659;28;20032;-69
2023/12/07 14:10:41;;;;;;;54.92;25.13;;;;;;;;;;5089267;28;20096;-68
2023/12/07 14:13:09;;;;;;;64.95;25.60;;;;;;;;;;5087755;28;20122;-68
2023/12/07 14:15:35;;;;;;;59.70;24.67;;;;;;;;;;5089583;28;20050;-68